首页
METAR-TAF:

METAR-TAF

机场 :

莫林, 伊利诺伊州, 美国

纬度: 41-27-05N, 经度: 090-30-53W, 海拔: 179米

当前天气观测

该预报发布于30分钟前的14:52 UTC
风速7节,风向西
温度 -2°C
湿度 80%
气压 1015 hPa
能見度: 16.1公里
阴天层高于1200英尺

METAR: KMLI 261452Z 28007KT 10SM OVC012 M02/M05 A2997 RMK AO2 SLP156 T10221050 52003

时间: 09:22 (15:22 UTC)

预报

该预报发布于13分钟前的15:09 UTC
预报有效从26日的 15点(UTC)到 27日的 12点(UTC)
风速8节,风向西
能見度: 10公里
阴天层高于1000英尺
从 26日的 1800点(UTC)
风速6节,风向西
能見度: 10公里
阴天层高于1500英尺
从 27日的 0400点(UTC)
风速4节,风向多变
能見度: 6.4公里
阴天层高于600英尺
轻雾

TAF: KMLI 261509Z 2615/2712 27008KT P6SM OVC010 FM261800 26006KT P6SM OVC015 FM270400 VRB04KT 4SM BR OVC006

超过4000个机场的气象观测和天气预报(METAR&TAF报告)。

可查询的气象台以黄色和红色小点在地图上表示。

将鼠标移到小点上方,可查看气象台名称。

然后点击查看天气观测和预报。

如需切换地图:点击带黑十字的绿色按钮放大地图;点击带横线的绿色按钮缩小地图;或者点击绿色箭头查看邻近地区的地图。


METAR-TAF: